KBBW/BBW METAR and TAF weather

Enter ICAO airport designator
Station Type Date Time Source
KBBW METAR 2019/08/19 07:53 UTC NOAA

KBBW 190753Z AUTO 12004KT 10SM CLR 16/16 A3000 RMK AO2 SLP144 T01610161


Station Type Date Time Source
KBBW Decoded METAR 2019/08/19 07:53 UTC NOAA

Station name not available
Aug 19, 2019 - 03:53 AM EDT / 2019.08.19 0753 UTC
Wind: from the ESE (120 degrees) at 5 MPH (4 KT):0
Visibility: 10 mile(s):0
Sky conditions: clear
Temperature: 61.0 F (16.1 C)
Dew Point: 61.0 F (16.1 C)
Relative Humidity: 100%
Pressure (altimeter): 30 in. Hg (1015 hPa)
ob: KBBW 190753Z AUTO 12004KT 10SM CLR 16/16 A3000 RMK AO2 SLP144 T01610161
cycle: 8

Station Type Date Time Source
KBBW TAF UTC NOAA

Error!

Example: see airport list